Va Bene — ZCIP8 — position and weather

sailwx.info

Track history (hours):
 
Tides and Currents Weather Stations Pressure Air Temp Water Temp Dewpoint Dewpoint Depression Visibility Wind Speed Wind Dir Waves Ship Positions

Va Bene

Last reported at 2016-Jul-23 10:13 UTC. Time now 2016-Jul-26 21:49 UTC.
Position N 42°26' E 018°26'.

Length 50 m; draft 3.6 m.

Type: Pleasure craft. MMSI: 319854000.

Date/timePositionNaut miles runAvg speedWind from/ knotsBaromVisibWave heightAir tempDewpointWater temp
2016-Jul-23 10:13N 42°26' E 018°26'5 7.7
2016-Jul-23 09:33N 42°25' E 018°33'6 6.3
2016-Jul-23 08:33N 42°26' E 018°41'0 0.0
2016-Jul-23 07:33N 42°26' E 018°41'0 0.0
2016-Jul-23 06:33N 42°26' E 018°41'3 1.5
2016-Jul-23 04:33N 42°29' E 018°41'0 0.0
2016-Jul-23 03:33N 42°29' E 018°41'0 0.0
2016-Jul-23 02:33N 42°29' E 018°41'0 0.0
2016-Jul-23 01:33N 42°29' E 018°41'0 0.0
2016-Jul-23 00:33N 42°29' E 018°41'0 0.0
2016-Jul-22 23:33N 42°29' E 018°41'0 0.0
2016-Jul-22 22:33N 42°29' E 018°41'0 0.0
2016-Jul-22 21:33N 42°29' E 018°41'0 0.0
2016-Jul-22 20:30N 42°29' E 018°41'0 0.0
2016-Jul-22 19:33N 42°29' E 018°41'0 0.0
2016-Jul-22 18:33N 42°29' E 018°41'4 4.1
2016-Jul-22 17:33N 42°27' E 018°46'1 0.8
2016-Jul-22 16:32N 42°26' E 018°46'0 0.0
2016-Jul-22 15:32N 42°26' E 018°46'3 1.6
2016-Jul-22 13:33N 42°29' E 018°45'0 0.0
2016-Jul-22 12:33N 42°29' E 018°45'0 0.0
2016-Jul-22 11:33N 42°29' E 018°45'3 3.3
2016-Jul-22 10:34N 42°28' E 018°41'2 2.4
2016-Jul-22 09:33N 42°26' E 018°42'0 0.0
2016-Jul-22 08:33N 42°26' E 018°42'0 0.0
2016-Jul-22 07:33N 42°26' E 018°42'0 0.0
2016-Jul-22 04:33N 42°26' E 018°42'0 0.0
2016-Jul-22 03:33N 42°26' E 018°42'0 0.0
2016-Jul-22 02:33N 42°26' E 018°42'0 0.0
2016-Jul-22 01:33N 42°26' E 018°42'0 0.0
2016-Jul-22 00:33N 42°26' E 018°42'0 0.0
2016-Jul-21 23:33N 42°26' E 018°42'0 0.0
2016-Jul-21 22:33N 42°26' E 018°42'0 0.0
2016-Jul-21 21:33N 42°26' E 018°42'0 0.0
2016-Jul-21 20:33N 42°26' E 018°42'0 0.0
2016-Jul-21 19:33N 42°26' E 018°42'0 0.0
2016-Jul-21 18:33N 42°26' E 018°42'0 0.0
2016-Jul-21 17:33N 42°26' E 018°42'0 0.0
2016-Jul-21 16:33N 42°26' E 018°42'0 0.0
2016-Jul-21 15:33N 42°26' E 018°42'0 0.0
2016-Jul-21 14:33N 42°26' E 018°42'0 0.0
2016-Jul-21 13:33N 42°26' E 018°42'0 0.0
2016-Jul-21 12:33N 42°26' E 018°42'0 0.0
2016-Jul-21 11:33N 42°26' E 018°42'0 0.0
2016-Jul-21 10:33N 42°26' E 018°42'0 0.0
2016-Jul-21 09:33N 42°26' E 018°42'0 0.0
2016-Jul-21 08:33N 42°26' E 018°42'0 0.0
2016-Jul-21 07:33N 42°26' E 018°42'0 0.0
2016-Jul-21 06:33N 42°26' E 018°42'0 0.0
2016-Jul-21 05:33N 42°26' E 018°42'0 0.0
2016-Jul-21 04:33N 42°26' E 018°42'0 0.0
2016-Jul-21 03:33N 42°26' E 018°42'0 0.0
2016-Jul-21 02:33N 42°26' E 018°42'0 0.0
2016-Jul-21 01:33N 42°26' E 018°42'0 0.0
2016-Jul-21 00:33N 42°26' E 018°42'0 0.0
2016-Jul-20 23:33N 42°26' E 018°42'0 0.0
2016-Jul-20 22:33N 42°26' E 018°42'0 0.0
2016-Jul-20 21:33N 42°26' E 018°42'0 0.0
2016-Jul-20 20:33N 42°26' E 018°42'0 0.0
2016-Jul-20 19:33N 42°26' E 018°42'0 0.0
2016-Jul-20 18:33N 42°26' E 018°42'0 0.0
2016-Jul-20 17:33N 42°26' E 018°42'0 0.0
2016-Jul-20 16:33N 42°26' E 018°42'0 0.0
2016-Jul-20 15:33N 42°26' E 018°42'0 0.0
2016-Jul-20 14:33N 42°26' E 018°42'0 0.0
2016-Jul-20 13:33N 42°26' E 018°42'0 0.0
2016-Jul-20 12:33N 42°26' E 018°42'0 0.0
2016-Jul-20 11:33N 42°26' E 018°42'0 0.0
2016-Jul-20 10:33N 42°26' E 018°42'0 0.0
2016-Jul-20 09:33N 42°26' E 018°42'0 0.0
2016-Jul-20 08:33N 42°26' E 018°42'0 0.0
2016-Jul-20 07:33N 42°26' E 018°42'0 0.0
2016-Jul-20 06:33N 42°26' E 018°42'0 0.0
2016-Jul-20 05:33N 42°26' E 018°42'0 0.0
2016-Jul-20 04:33N 42°26' E 018°42'0 0.0
2016-Jul-20 03:33N 42°26' E 018°42'0 0.0
2016-Jul-20 02:33N 42°26' E 018°42'0 0.0
2016-Jul-20 01:33N 42°26' E 018°42'0 0.0
2016-Jul-20 00:33N 42°26' E 018°42'0 0.0
2016-Jul-19 23:33N 42°26' E 018°42'0 0.0
2016-Jul-19 22:33N 42°26' E 018°42'0 0.0
2016-Jul-19 21:33N 42°26' E 018°42'0 0.0
2016-Jul-19 20:33N 42°26' E 018°42'0 0.0
2016-Jul-19 19:33N 42°26' E 018°42'0 0.0
2016-Jul-19 18:33N 42°26' E 018°42'0 0.0
2016-Jul-19 17:33N 42°26' E 018°42'0 0.0
2016-Jul-19 16:33N 42°26' E 018°42'0 0.0
2016-Jul-19 15:33N 42°26' E 018°42'0 0.0
2016-Jul-19 14:33N 42°26' E 018°42'0 0.0
2016-Jul-19 13:33N 42°26' E 018°42'0 0.0
2016-Jul-19 12:33N 42°26' E 018°42'0 0.0
2016-Jul-19 11:33N 42°26' E 018°42'0 0.0
2016-Jul-19 10:33N 42°26' E 018°42'0 0.0
2016-Jul-19 09:33N 42°26' E 018°42'0 0.0
2016-Jul-19 08:33N 42°26' E 018°42'0 0.0
2016-Jul-19 07:33N 42°26' E 018°42'0 0.0
2016-Jul-19 04:33N 42°26' E 018°42'0 0.0
2016-Jul-19 03:33N 42°26' E 018°42'0 0.0
2016-Jul-19 02:33N 42°26' E 018°42'0 0.0
2016-Jul-19 01:33N 42°26' E 018°42'0 0.0
2016-Jul-19 00:33N 42°26' E 018°42'0 0.0
2016-Jul-18 23:33N 42°26' E 018°42'0 0.0
2016-Jul-18 22:33N 42°26' E 018°42'0 0.0
2016-Jul-18 21:33N 42°26' E 018°42'0 0.0
2016-Jul-18 20:33N 42°26' E 018°42'0 0.0
2016-Jul-18 19:33N 42°26' E 018°42'0 0.0
2016-Jul-18 18:33N 42°26' E 018°42'0 0.0
2016-Jul-18 17:33N 42°26' E 018°42'0 0.0
2016-Jul-18 16:33N 42°26' E 018°42'0 0.0
2016-Jul-18 15:33N 42°26' E 018°42'0 0.0
2016-Jul-18 14:33N 42°26' E 018°42'0 0.0
2016-Jul-18 13:33N 42°26' E 018°42'0 0.0
2016-Jul-18 12:33N 42°26' E 018°42'0 0.0
2016-Jul-18 11:33N 42°26' E 018°42'0 0.0
2016-Jul-18 10:33N 42°26' E 018°42'0 0.0
2016-Jul-18 09:33N 42°26' E 018°42'0 0.0
2016-Jul-18 08:33N 42°26' E 018°42'0 0.0
2016-Jul-18 07:33N 42°26' E 018°42'  
Track history (hours):
 
Tides and Currents Weather Stations Pressure Air Temp Water Temp Dewpoint Dewpoint Depression Visibility Wind Speed Wind Dir Waves Ship Positions

Va Bene

Last reported at 2016-Jul-23 10:13 UTC. Time now 2016-Jul-26 21:49 UTC.
Position N 42°26' E 018°26'.

Length 50 m; draft 3.6 m.

Type: Pleasure craft. MMSI: 319854000.

Date/timePositionNaut miles runAvg speedWind from/ knotsBaromVisibWave heightAir tempDewpointWater temp
2016-Jul-23 10:13N 42°26' E 018°26'5 7.7
2016-Jul-23 09:33N 42°25' E 018°33'6 6.3
2016-Jul-23 08:33N 42°26' E 018°41'0 0.0
2016-Jul-23 07:33N 42°26' E 018°41'0 0.0
2016-Jul-23 06:33N 42°26' E 018°41'3 1.5
2016-Jul-23 04:33N 42°29' E 018°41'0 0.0
2016-Jul-23 03:33N 42°29' E 018°41'0 0.0
2016-Jul-23 02:33N 42°29' E 018°41'0 0.0
2016-Jul-23 01:33N 42°29' E 018°41'0 0.0
2016-Jul-23 00:33N 42°29' E 018°41'0 0.0
2016-Jul-22 23:33N 42°29' E 018°41'0 0.0
2016-Jul-22 22:33N 42°29' E 018°41'0 0.0
2016-Jul-22 21:33N 42°29' E 018°41'0 0.0
2016-Jul-22 20:30N 42°29' E 018°41'0 0.0
2016-Jul-22 19:33N 42°29' E 018°41'0 0.0
2016-Jul-22 18:33N 42°29' E 018°41'4 4.1
2016-Jul-22 17:33N 42°27' E 018°46'1 0.8
2016-Jul-22 16:32N 42°26' E 018°46'0 0.0
2016-Jul-22 15:32N 42°26' E 018°46'3 1.6
2016-Jul-22 13:33N 42°29' E 018°45'0 0.0
2016-Jul-22 12:33N 42°29' E 018°45'0 0.0
2016-Jul-22 11:33N 42°29' E 018°45'3 3.3
2016-Jul-22 10:34N 42°28' E 018°41'2 2.4
2016-Jul-22 09:33N 42°26' E 018°42'0 0.0
2016-Jul-22 08:33N 42°26' E 018°42'0 0.0
2016-Jul-22 07:33N 42°26' E 018°42'0 0.0
2016-Jul-22 04:33N 42°26' E 018°42'0 0.0
2016-Jul-22 03:33N 42°26' E 018°42'0 0.0
2016-Jul-22 02:33N 42°26' E 018°42'0 0.0
2016-Jul-22 01:33N 42°26' E 018°42'0 0.0
2016-Jul-22 00:33N 42°26' E 018°42'0 0.0
2016-Jul-21 23:33N 42°26' E 018°42'0 0.0
2016-Jul-21 22:33N 42°26' E 018°42'0 0.0
2016-Jul-21 21:33N 42°26' E 018°42'0 0.0
2016-Jul-21 20:33N 42°26' E 018°42'0 0.0
2016-Jul-21 19:33N 42°26' E 018°42'0 0.0
2016-Jul-21 18:33N 42°26' E 018°42'0 0.0
2016-Jul-21 17:33N 42°26' E 018°42'0 0.0
2016-Jul-21 16:33N 42°26' E 018°42'0 0.0
2016-Jul-21 15:33N 42°26' E 018°42'0 0.0
2016-Jul-21 14:33N 42°26' E 018°42'0 0.0
2016-Jul-21 13:33N 42°26' E 018°42'0 0.0
2016-Jul-21 12:33N 42°26' E 018°42'0 0.0
2016-Jul-21 11:33N 42°26' E 018°42'0 0.0
2016-Jul-21 10:33N 42°26' E 018°42'0 0.0
2016-Jul-21 09:33N 42°26' E 018°42'0 0.0
2016-Jul-21 08:33N 42°26' E 018°42'0 0.0
2016-Jul-21 07:33N 42°26' E 018°42'0 0.0
2016-Jul-21 06:33N 42°26' E 018°42'0 0.0
2016-Jul-21 05:33N 42°26' E 018°42'0 0.0
2016-Jul-21 04:33N 42°26' E 018°42'0 0.0
2016-Jul-21 03:33N 42°26' E 018°42'0 0.0
2016-Jul-21 02:33N 42°26' E 018°42'0 0.0
2016-Jul-21 01:33N 42°26' E 018°42'0 0.0
2016-Jul-21 00:33N 42°26' E 018°42'0 0.0
2016-Jul-20 23:33N 42°26' E 018°42'0 0.0
2016-Jul-20 22:33N 42°26' E 018°42'0 0.0
2016-Jul-20 21:33N 42°26' E 018°42'0 0.0
2016-Jul-20 20:33N 42°26' E 018°42'0 0.0
2016-Jul-20 19:33N 42°26' E 018°42'0 0.0
2016-Jul-20 18:33N 42°26' E 018°42'0 0.0
2016-Jul-20 17:33N 42°26' E 018°42'0 0.0
2016-Jul-20 16:33N 42°26' E 018°42'0 0.0
2016-Jul-20 15:33N 42°26' E 018°42'0 0.0
2016-Jul-20 14:33N 42°26' E 018°42'0 0.0
2016-Jul-20 13:33N 42°26' E 018°42'0 0.0
2016-Jul-20 12:33N 42°26' E 018°42'0 0.0
2016-Jul-20 11:33N 42°26' E 018°42'0 0.0
2016-Jul-20 10:33N 42°26' E 018°42'0 0.0
2016-Jul-20 09:33N 42°26' E 018°42'0 0.0
2016-Jul-20 08:33N 42°26' E 018°42'0 0.0
2016-Jul-20 07:33N 42°26' E 018°42'0 0.0
2016-Jul-20 06:33N 42°26' E 018°42'0 0.0
2016-Jul-20 05:33N 42°26' E 018°42'0 0.0
2016-Jul-20 04:33N 42°26' E 018°42'0 0.0
2016-Jul-20 03:33N 42°26' E 018°42'0 0.0
2016-Jul-20 02:33N 42°26' E 018°42'0 0.0
2016-Jul-20 01:33N 42°26' E 018°42'0 0.0
2016-Jul-20 00:33N 42°26' E 018°42'0 0.0
2016-Jul-19 23:33N 42°26' E 018°42'0 0.0
2016-Jul-19 22:33N 42°26' E 018°42'0 0.0
2016-Jul-19 21:33N 42°26' E 018°42'0 0.0
2016-Jul-19 20:33N 42°26' E 018°42'0 0.0
2016-Jul-19 19:33N 42°26' E 018°42'0 0.0
2016-Jul-19 18:33N 42°26' E 018°42'0 0.0
2016-Jul-19 17:33N 42°26' E 018°42'0 0.0
2016-Jul-19 16:33N 42°26' E 018°42'0 0.0
2016-Jul-19 15:33N 42°26' E 018°42'0 0.0
2016-Jul-19 14:33N 42°26' E 018°42'0 0.0
2016-Jul-19 13:33N 42°26' E 018°42'0 0.0
2016-Jul-19 12:33N 42°26' E 018°42'0 0.0
2016-Jul-19 11:33N 42°26' E 018°42'0 0.0
2016-Jul-19 10:33N 42°26' E 018°42'0 0.0
2016-Jul-19 09:33N 42°26' E 018°42'0 0.0
2016-Jul-19 08:33N 42°26' E 018°42'0 0.0
2016-Jul-19 07:33N 42°26' E 018°42'0 0.0
2016-Jul-19 04:33N 42°26' E 018°42'0 0.0
2016-Jul-19 03:33N 42°26' E 018°42'0 0.0
2016-Jul-19 02:33N 42°26' E 018°42'0 0.0
2016-Jul-19 01:33N 42°26' E 018°42'0 0.0
2016-Jul-19 00:33N 42°26' E 018°42'0 0.0
2016-Jul-18 23:33N 42°26' E 018°42'0 0.0
2016-Jul-18 22:33N 42°26' E 018°42'0 0.0
2016-Jul-18 21:33N 42°26' E 018°42'0 0.0
2016-Jul-18 20:33N 42°26' E 018°42'0 0.0
2016-Jul-18 19:33N 42°26' E 018°42'0 0.0
2016-Jul-18 18:33N 42°26' E 018°42'0 0.0
2016-Jul-18 17:33N 42°26' E 018°42'0 0.0
2016-Jul-18 16:33N 42°26' E 018°42'0 0.0
2016-Jul-18 15:33N 42°26' E 018°42'0 0.0
2016-Jul-18 14:33N 42°26' E 018°42'0 0.0
2016-Jul-18 13:33N 42°26' E 018°42'0 0.0
2016-Jul-18 12:33N 42°26' E 018°42'0 0.0
2016-Jul-18 11:33N 42°26' E 018°42'0 0.0
2016-Jul-18 10:33N 42°26' E 018°42'0 0.0
2016-Jul-18 09:33N 42°26' E 018°42'0 0.0
2016-Jul-18 08:33N 42°26' E 018°42'0 0.0
2016-Jul-18 07:33N 42°26' E 018°42'  

Dump ship's entire track history